sensor_id;sensor_type;location;lat;lon;timestamp;pressure;altitude;pressure_sealevel;temperature;humidity
28927;BME280;16038;47.692;9.400;2023-02-23T00:03:42;96339.16;;;6.45;100.00
28927;BME280;16038;47.692;9.400;2023-02-23T00:06:07;96333.72;;;6.45;100.00
28927;BME280;16038;47.692;9.400;2023-02-23T00:08:33;96330.66;;;6.47;100.00
28927;BME280;16038;47.692;9.400;2023-02-23T00:11:03;96340.84;;;6.50;100.00
28927;BME280;16038;47.692;9.400;2023-02-23T00:13:30;96336.81;;;6.60;100.00
28927;BME280;16038;47.692;9.400;2023-02-23T00:15:55;96340.59;;;6.71;100.00
28927;BME280;16038;47.692;9.400;2023-02-23T00:18:21;96335.41;;;6.82;100.00
28927;BME280;16038;47.692;9.400;2023-02-23T00:20:56;96338.06;;;6.94;100.00
28927;BME280;16038;47.692;9.400;2023-02-23T00:23:22;96339.09;;;7.05;100.00
28927;BME280;16038;47.692;9.400;2023-02-23T00:25:47;96333.81;;;7.13;100.00
28927;BME280;16038;47.692;9.400;2023-02-23T00:28:13;96340.69;;;7.22;100.00
28927;BME280;16038;47.692;9.400;2023-02-23T00:30:38;96335.16;;;7.19;100.00
28927;BME280;16038;47.692;9.400;2023-02-23T00:33:03;96332.19;;;7.08;100.00
28927;BME280;16038;47.692;9.400;2023-02-23T00:35:29;96338.75;;;6.91;100.00
28927;BME280;16038;47.692;9.400;2023-02-23T00:37:54;96334.84;;;6.44;100.00
28927;BME280;16038;47.692;9.400;2023-02-23T00:40:19;96337.38;;;6.37;100.00
28927;BME280;16038;47.692;9.400;2023-02-23T00:42:47;96338.97;;;6.38;100.00
28927;BME280;16038;47.692;9.400;2023-02-23T00:45:14;96342.47;;;6.39;100.00
28927;BME280;16038;47.692;9.400;2023-02-23T00:47:40;96338.19;;;6.38;100.00
28927;BME280;16038;47.692;9.400;2023-02-23T00:50:12;96337.13;;;6.42;100.00
28927;BME280;16038;47.692;9.400;2023-02-23T00:52:41;96338.22;;;6.54;100.00
28927;BME280;16038;47.692;9.400;2023-02-23T00:55:07;96337.06;;;6.55;100.00
28927;BME280;16038;47.692;9.400;2023-02-23T00:57:33;96335.50;;;6.54;100.00
28927;BME280;16038;47.692;9.400;2023-02-23T00:59:58;96334.00;;;6.56;100.00
28927;BME280;16038;47.692;9.400;2023-02-23T01:02:23;96332.41;;;6.55;100.00
28927;BME280;16038;47.692;9.400;2023-02-23T01:04:49;96327.94;;;6.47;100.00
28927;BME280;16038;47.692;9.400;2023-02-23T01:07:14;96329.94;;;6.34;100.00
28927;BME280;16038;47.692;9.400;2023-02-23T01:09:39;96330.78;;;6.22;100.00
28927;BME280;16038;47.692;9.400;2023-02-23T01:12:05;96329.78;;;6.15;100.00
28927;BME280;16038;47.692;9.400;2023-02-23T01:14:31;96330.81;;;6.10;100.00
28927;BME280;16038;47.692;9.400;2023-02-23T01:16:57;96330.63;;;6.03;100.00
28927;BME280;16038;47.692;9.400;2023-02-23T01:19:22;96329.50;;;6.04;100.00
28927;BME280;16038;47.692;9.400;2023-02-23T01:21:47;96329.78;;;6.15;100.00
28927;BME280;16038;47.692;9.400;2023-02-23T01:24:13;96328.94;;;6.26;100.00
28927;BME280;16038;47.692;9.400;2023-02-23T01:26:40;96322.47;;;6.31;100.00
28927;BME280;16038;47.692;9.400;2023-02-23T01:29:06;96322.47;;;6.31;100.00
28927;BME280;16038;47.692;9.400;2023-02-23T01:31:35;96319.50;;;6.36;100.00
28927;BME280;16038;47.692;9.400;2023-02-23T01:34:01;96326.25;;;6.42;100.00
28927;BME280;16038;47.692;9.400;2023-02-23T01:36:27;96322.59;;;6.50;100.00
28927;BME280;16038;47.692;9.400;2023-02-23T01:38:53;96312.22;;;6.56;100.00
28927;BME280;16038;47.692;9.400;2023-02-23T01:41:20;96319.34;;;6.61;100.00
28927;BME280;16038;47.692;9.400;2023-02-23T01:46:29;96314.16;;;6.72;100.00
28927;BME280;16038;47.692;9.400;2023-02-23T01:48:55;96318.13;;;6.74;100.00
28927;BME280;16038;47.692;9.400;2023-02-23T01:51:21;96310.84;;;6.78;100.00
28927;BME280;16038;47.692;9.400;2023-02-23T01:53:50;96310.41;;;7.08;100.00
28927;BME280;16038;47.692;9.400;2023-02-23T01:56:20;96307.75;;;7.12;100.00
28927;BME280;16038;47.692;9.400;2023-02-23T01:58:48;96310.81;;;7.10;100.00
28927;BME280;16038;47.692;9.400;2023-02-23T02:01:16;96310.47;;;7.12;100.00
28927;BME280;16038;47.692;9.400;2023-02-23T02:03:53;96306.50;;;7.09;100.00
28927;BME280;16038;47.692;9.400;2023-02-23T02:06:20;96310.31;;;7.04;100.00
28927;BME280;16038;47.692;9.400;2023-02-23T02:08:47;96308.97;;;6.98;100.00
28927;BME280;16038;47.692;9.400;2023-02-23T02:11:18;96306.59;;;6.97;100.00
28927;BME280;16038;47.692;9.400;2023-02-23T02:14:01;96321.28;;;6.92;100.00
28927;BME280;16038;47.692;9.400;2023-02-23T02:26:46;96310.47;;;6.96;100.00
28927;BME280;16038;47.692;9.400;2023-02-23T02:44:37;96300.47;;;7.00;100.00
28927;BME280;16038;47.692;9.400;2023-02-23T02:47:07;96299.94;;;6.94;100.00
28927;BME280;16038;47.692;9.400;2023-02-23T02:49:59;96306.72;;;6.84;100.00
28927;BME280;16038;47.692;9.400;2023-02-23T02:52:33;96303.63;;;6.86;100.00
28927;BME280;16038;47.692;9.400;2023-02-23T02:55:02;96303.44;;;6.79;100.00
28927;BME280;16038;47.692;9.400;2023-02-23T02:57:28;96301.78;;;6.74;100.00
28927;BME280;16038;47.692;9.400;2023-02-23T02:59:56;96301.38;;;6.72;100.00
28927;BME280;16038;47.692;9.400;2023-02-23T03:02:40;96301.38;;;6.72;100.00
28927;BME280;16038;47.692;9.400;2023-02-23T03:05:24;96304.78;;;6.69;100.00
28927;BME280;16038;47.692;9.400;2023-02-23T03:11:06;96301.59;;;6.51;100.00
28927;BME280;16038;47.692;9.400;2023-02-23T03:19:35;96302.41;;;6.07;100.00
28927;BME280;16038;47.692;9.400;2023-02-23T03:22:27;96294.94;;;5.92;100.00
28927;BME280;16038;47.692;9.400;2023-02-23T03:25:17;96299.06;;;5.86;100.00
28927;BME280;16038;47.692;9.400;2023-02-23T03:28:07;96296.03;;;5.75;100.00
28927;BME280;16038;47.692;9.400;2023-02-23T03:30:55;96291.72;;;5.74;100.00
28927;BME280;16038;47.692;9.400;2023-02-23T03:34:01;96293.66;;;5.73;100.00
28927;BME280;16038;47.692;9.400;2023-02-23T03:36:50;96291.41;;;5.75;100.00
28927;BME280;16038;47.692;9.400;2023-02-23T03:39:41;96297.72;;;5.80;100.00
28927;BME280;16038;47.692;9.400;2023-02-23T03:42:28;96293.88;;;5.81;100.00
28927;BME280;16038;47.692;9.400;2023-02-23T03:45:15;96295.81;;;5.80;100.00
28927;BME280;16038;47.692;9.400;2023-02-23T03:48:00;96300.09;;;5.81;100.00
28927;BME280;16038;47.692;9.400;2023-02-23T03:50:51;96300.81;;;5.78;100.00
28927;BME280;16038;47.692;9.400;2023-02-23T03:53:39;96300.44;;;5.80;100.00
28927;BME280;16038;47.692;9.400;2023-02-23T03:56:24;96304.63;;;5.77;100.00
28927;BME280;16038;47.692;9.400;2023-02-23T03:59:09;96305.88;;;5.80;100.00
28927;BME280;16038;47.692;9.400;2023-02-23T04:01:55;96301.69;;;5.82;100.00
28927;BME280;16038;47.692;9.400;2023-02-23T04:04:40;96303.44;;;5.90;100.00
28927;BME280;16038;47.692;9.400;2023-02-23T04:07:25;96312.59;;;6.10;100.00
28927;BME280;16038;47.692;9.400;2023-02-23T04:10:09;96302.78;;;6.22;100.00
28927;BME280;16038;47.692;9.400;2023-02-23T04:15:53;96300.47;;;6.08;100.00
28927;BME280;16038;47.692;9.400;2023-02-23T04:18:24;96304.69;;;6.05;100.00
28927;BME280;16038;47.692;9.400;2023-02-23T04:20:50;96311.25;;;6.04;100.00
28927;BME280;16038;47.692;9.400;2023-02-23T04:23:15;96303.25;;;5.96;100.00
28927;BME280;16038;47.692;9.400;2023-02-23T04:25:41;96309.47;;;5.96;100.00
28927;BME280;16038;47.692;9.400;2023-02-23T04:28:07;96308.44;;;6.01;100.00
28927;BME280;16038;47.692;9.400;2023-02-23T04:30:32;96308.19;;;6.06;100.00
28927;BME280;16038;47.692;9.400;2023-02-23T04:32:57;96311.69;;;6.06;100.00
28927;BME280;16038;47.692;9.400;2023-02-23T04:35:23;96311.94;;;6.01;100.00
28927;BME280;16038;47.692;9.400;2023-02-23T04:37:49;96311.16;;;6.01;100.00
28927;BME280;16038;47.692;9.400;2023-02-23T04:40:14;96311.59;;;6.03;100.00
28927;BME280;16038;47.692;9.400;2023-02-23T04:42:40;96310.91;;;6.06;100.00
28927;BME280;16038;47.692;9.400;2023-02-23T04:45:05;96313.72;;;6.09;100.00
28927;BME280;16038;47.692;9.400;2023-02-23T04:47:31;96314.50;;;6.10;100.00
28927;BME280;16038;47.692;9.400;2023-02-23T04:49:56;96314.31;;;6.03;100.00
28927;BME280;16038;47.692;9.400;2023-02-23T04:52:21;96315.38;;;5.98;100.00
28927;BME280;16038;47.692;9.400;2023-02-23T04:54:47;96316.34;;;5.93;100.00
28927;BME280;16038;47.692;9.400;2023-02-23T04:57:12;96316.50;;;5.97;100.00
28927;BME280;16038;47.692;9.400;2023-02-23T04:59:38;96317.94;;;6.07;100.00
28927;BME280;16038;47.692;9.400;2023-02-23T05:02:03;96309.78;;;6.23;100.00
28927;BME280;16038;47.692;9.400;2023-02-23T05:04:28;96310.47;;;6.32;100.00
28927;BME280;16038;47.692;9.400;2023-02-23T05:06:54;96309.06;;;6.38;100.00
28927;BME280;16038;47.692;9.400;2023-02-23T05:09:19;96308.78;;;6.27;100.00
28927;BME280;16038;47.692;9.400;2023-02-23T05:11:44;96307.44;;;6.21;100.00
28927;BME280;16038;47.692;9.400;2023-02-23T05:14:10;96304.63;;;6.18;100.00
28927;BME280;16038;47.692;9.400;2023-02-23T05:16:36;96306.09;;;6.15;100.00
28927;BME280;16038;47.692;9.400;2023-02-23T05:19:02;96303.97;;;6.08;100.00
28927;BME280;16038;47.692;9.400;2023-02-23T05:21:27;96305.13;;;6.07;100.00
28927;BME280;16038;47.692;9.400;2023-02-23T05:23:52;96305.91;;;6.08;100.00
28927;BME280;16038;47.692;9.400;2023-02-23T05:26:18;96312.06;;;6.21;100.00
28927;BME280;16038;47.692;9.400;2023-02-23T05:28:43;96307.06;;;6.23;100.00
28927;BME280;16038;47.692;9.400;2023-02-23T05:31:09;96312.53;;;6.23;100.00
28927;BME280;16038;47.692;9.400;2023-02-23T05:33:34;96306.63;;;6.21;100.00
28927;BME280;16038;47.692;9.400;2023-02-23T05:36:06;96311.78;;;6.10;100.00
28927;BME280;16038;47.692;9.400;2023-02-23T05:38:32;96304.34;;;6.07;100.00
28927;BME280;16038;47.692;9.400;2023-02-23T05:40:58;96312.84;;;6.05;100.00
28927;BME280;16038;47.692;9.400;2023-02-23T05:43:23;96309.22;;;6.01;100.00
28927;BME280;16038;47.692;9.400;2023-02-23T05:45:48;96313.88;;;5.88;100.00
28927;BME280;16038;47.692;9.400;2023-02-23T05:48:14;96309.50;;;5.84;100.00
28927;BME280;16038;47.692;9.400;2023-02-23T05:50:39;96305.97;;;5.83;100.00
28927;BME280;16038;47.692;9.400;2023-02-23T05:53:05;96304.31;;;5.79;100.00
28927;BME280;16038;47.692;9.400;2023-02-23T05:55:30;96304.97;;;5.75;100.00
28927;BME280;16038;47.692;9.400;2023-02-23T05:57:55;96301.38;;;5.71;100.00
28927;BME280;16038;47.692;9.400;2023-02-23T06:00:21;96305.81;;;5.64;100.00
28927;BME280;16038;47.692;9.400;2023-02-23T06:02:46;96306.50;;;5.61;100.00
28927;BME280;16038;47.692;9.400;2023-02-23T06:05:12;96310.44;;;5.63;100.00
28927;BME280;16038;47.692;9.400;2023-02-23T06:07:38;96313.50;;;5.62;100.00
28927;BME280;16038;47.692;9.400;2023-02-23T06:10:04;96310.44;;;5.63;100.00
28927;BME280;16038;47.692;9.400;2023-02-23T06:12:29;96304.22;;;5.63;100.00
28927;BME280;16038;47.692;9.400;2023-02-23T06:14:55;96311.25;;;5.64;100.00
28927;BME280;16038;47.692;9.400;2023-02-23T06:17:21;96312.38;;;5.63;100.00
28927;BME280;16038;47.692;9.400;2023-02-23T06:19:46;96312.38;;;5.63;100.00
28927;BME280;16038;47.692;9.400;2023-02-23T06:22:12;96313.88;;;5.60;100.00
28927;BME280;16038;47.692;9.400;2023-02-23T06:24:37;96311.59;;;5.62;100.00
28927;BME280;16038;47.692;9.400;2023-02-23T06:27:02;96311.16;;;5.60;100.00
28927;BME280;16038;47.692;9.400;2023-02-23T06:29:28;96306.06;;;5.59;100.00
28927;BME280;16038;47.692;9.400;2023-02-23T06:31:53;96315.78;;;5.60;100.00
28927;BME280;16038;47.692;9.400;2023-02-23T06:34:18;96316.59;;;5.60;100.00
28927;BME280;16038;47.692;9.400;2023-02-23T06:36:44;96320.88;;;5.61;100.00
28927;BME280;16038;47.692;9.400;2023-02-23T06:39:10;96328.00;;;5.66;100.00
28927;BME280;16038;47.692;9.400;2023-02-23T06:41:35;96328.88;;;5.70;100.00
28927;BME280;16038;47.692;9.400;2023-02-23T06:44:01;96325.94;;;5.75;100.00
28927;BME280;16038;47.692;9.400;2023-02-23T06:46:26;96327.59;;;5.80;100.00
28927;BME280;16038;47.692;9.400;2023-02-23T06:48:55;96335.63;;;5.88;100.00
28927;BME280;16038;47.692;9.400;2023-02-23T06:51:20;96331.69;;;5.86;100.00
28927;BME280;16038;47.692;9.400;2023-02-23T06:53:45;96329.88;;;5.78;100.00
28927;BME280;16038;47.692;9.400;2023-02-23T06:56:11;96327.50;;;5.76;100.00
28927;BME280;16038;47.692;9.400;2023-02-23T06:58:37;96331.91;;;5.81;100.00
28927;BME280;16038;47.692;9.400;2023-02-23T07:01:03;96333.50;;;5.82;100.00
28927;BME280;16038;47.692;9.400;2023-02-23T07:03:28;96340.63;;;5.86;100.00
28927;BME280;16038;47.692;9.400;2023-02-23T07:05:53;96344.31;;;5.94;100.00
28927;BME280;16038;47.692;9.400;2023-02-23T07:08:19;96344.47;;;5.98;100.00
28927;BME280;16038;47.692;9.400;2023-02-23T07:10:44;96340.94;;;5.97;100.00
28927;BME280;16038;47.692;9.400;2023-02-23T07:13:10;96349.22;;;6.01;100.00
28927;BME280;16038;47.692;9.400;2023-02-23T07:15:37;96347.03;;;6.06;100.00
28927;BME280;16038;47.692;9.400;2023-02-23T07:18:03;96350.56;;;6.07;100.00
28927;BME280;16038;47.692;9.400;2023-02-23T07:20:28;96350.38;;;6.00;100.00
28927;BME280;16038;47.692;9.400;2023-02-23T07:22:55;96354.06;;;6.07;100.00
28927;BME280;16038;47.692;9.400;2023-02-23T07:25:21;96349.81;;;6.22;100.00
28927;BME280;16038;47.692;9.400;2023-02-23T07:27:46;96350.97;;;6.21;100.00
28927;BME280;16038;47.692;9.400;2023-02-23T07:30:11;96352.97;;;6.24;100.00
28927;BME280;16038;47.692;9.400;2023-02-23T07:32:37;96355.53;;;6.33;100.00
28927;BME280;16038;47.692;9.400;2023-02-23T07:35:02;96359.94;;;6.38;100.00
28927;BME280;16038;47.692;9.400;2023-02-23T07:37:28;96355.53;;;6.33;100.00
28927;BME280;16038;47.692;9.400;2023-02-23T07:39:53;96358.16;;;6.29;100.00
28927;BME280;16038;47.692;9.400;2023-02-23T07:42:19;96362.13;;;6.32;100.00
28927;BME280;16038;47.692;9.400;2023-02-23T07:44:44;96361.47;;;6.51;100.00
28927;BME280;16038;47.692;9.400;2023-02-23T07:47:09;96365.53;;;6.57;100.00
28927;BME280;16038;47.692;9.400;2023-02-23T07:49:35;96366.34;;;6.74;100.00
28927;BME280;16038;47.692;9.400;2023-02-23T07:52:00;96362.31;;;6.99;100.00
28927;BME280;16038;47.692;9.400;2023-02-23T07:54:25;96365.63;;;7.08;100.00
28927;BME280;16038;47.692;9.400;2023-02-23T07:56:51;96368.44;;;6.80;100.00
28927;BME280;16038;47.692;9.400;2023-02-23T07:59:17;96366.16;;;6.82;100.00
28927;BME280;16038;47.692;9.400;2023-02-23T08:01:42;96369.84;;;6.90;100.00
28927;BME280;16038;47.692;9.400;2023-02-23T08:04:07;96370.47;;;6.99;100.00
28927;BME280;16038;47.692;9.400;2023-02-23T08:06:33;96364.69;;;7.17;100.00
28927;BME280;16038;47.692;9.400;2023-02-23T08:08:58;96367.13;;;7.22;100.00
28927;BME280;16038;47.692;9.400;2023-02-23T08:11:25;96361.22;;;7.04;100.00
28927;BME280;16038;47.692;9.400;2023-02-23T08:13:53;96357.63;;;7.00;100.00
28927;BME280;16038;47.692;9.400;2023-02-23T08:16:20;96363.88;;;7.00;100.00
28927;BME280;16038;47.692;9.400;2023-02-23T08:18:46;96368.97;;;7.18;100.00
28927;BME280;16038;47.692;9.400;2023-02-23T08:21:11;96368.00;;;7.42;100.00
28927;BME280;16038;47.692;9.400;2023-02-23T08:23:36;96367.41;;;7.17;100.00
28927;BME280;16038;47.692;9.400;2023-02-23T08:26:02;96368.44;;;7.12;100.00
28927;BME280;16038;47.692;9.400;2023-02-23T08:28:28;96367.94;;;7.22;100.00
28927;BME280;16038;47.692;9.400;2023-02-23T08:30:54;96369.75;;;7.34;100.00
28927;BME280;16038;47.692;9.400;2023-02-23T08:33:19;96365.81;;;7.32;100.00
28927;BME280;16038;47.692;9.400;2023-02-23T08:35:44;96368.00;;;7.42;100.00
28927;BME280;16038;47.692;9.400;2023-02-23T08:38:10;96365.97;;;7.39;100.00
28927;BME280;16038;47.692;9.400;2023-02-23T08:40:35;96368.44;;;7.44;100.00
28927;BME280;16038;47.692;9.400;2023-02-23T08:43:00;96360.94;;;7.41;100.00
28927;BME280;16038;47.692;9.400;2023-02-23T08:45:26;96365.03;;;7.66;100.00
28927;BME280;16038;47.692;9.400;2023-02-23T08:47:53;96365.78;;;8.02;100.00
28927;BME280;16038;47.692;9.400;2023-02-23T08:50:19;96361.91;;;7.84;100.00
28927;BME280;16038;47.692;9.400;2023-02-23T08:52:44;96358.09;;;7.69;100.00
28927;BME280;16038;47.692;9.400;2023-02-23T08:55:09;96359.53;;;7.82;100.00
28927;BME280;16038;47.692;9.400;2023-02-23T08:57:35;96354.88;;;7.83;100.00
28927;BME280;16038;47.692;9.400;2023-02-23T09:00:01;96348.22;;;8.00;100.00
28927;BME280;16038;47.692;9.400;2023-02-23T09:02:27;96344.19;;;8.33;100.00
28927;BME280;16038;47.692;9.400;2023-02-23T09:04:53;96349.72;;;8.56;100.00
28927;BME280;16038;47.692;9.400;2023-02-23T09:07:18;96345.38;;;8.97;100.00
28927;BME280;16038;47.692;9.400;2023-02-23T09:09:44;96344.78;;;9.88;100.00
28927;BME280;16038;47.692;9.400;2023-02-23T09:12:09;96362.38;;;9.87;100.00
28927;BME280;16038;47.692;9.400;2023-02-23T09:14:35;96357.59;;;10.41;100.00
28927;BME280;16038;47.692;9.400;2023-02-23T09:17:00;96364.81;;;12.01;100.00
28927;BME280;16038;47.692;9.400;2023-02-23T09:19:26;96370.50;;;12.48;100.00
28927;BME280;16038;47.692;9.400;2023-02-23T09:21:51;96370.66;;;13.81;99.43
28927;BME280;16038;47.692;9.400;2023-02-23T09:24:18;96376.53;;;13.97;96.85
28927;BME280;16038;47.692;9.400;2023-02-23T09:26:44;96375.44;;;14.86;90.48
28927;BME280;16038;47.692;9.400;2023-02-23T09:29:09;96377.63;;;15.13;86.09
28927;BME280;16038;47.692;9.400;2023-02-23T09:31:34;96375.41;;;15.95;76.22
28927;BME280;16038;47.692;9.400;2023-02-23T09:33:59;96372.22;;;15.51;73.48
28927;BME280;16038;47.692;9.400;2023-02-23T09:36:26;96377.56;;;15.73;75.02
28927;BME280;16038;47.692;9.400;2023-02-23T09:38:52;96369.31;;;16.11;72.51
28927;BME280;16038;47.692;9.400;2023-02-23T09:48:53;96379.47;;;14.67;76.23
28927;BME280;16038;47.692;9.400;2023-02-23T09:51:19;96392.59;;;14.20;78.56
28927;BME280;16038;47.692;9.400;2023-02-23T09:53:55;96388.00;;;13.77;83.46
28927;BME280;16038;47.692;9.400;2023-02-23T09:56:40;96391.88;;;14.05;83.52
28927;BME280;16038;47.692;9.400;2023-02-23T09:59:14;96394.84;;;14.54;83.82
28927;BME280;16038;47.692;9.400;2023-02-23T10:06:44;96384.31;;;16.48;68.88
28927;BME280;16038;47.692;9.400;2023-02-23T10:09:17;96390.03;;;17.26;65.82
28927;BME280;16038;47.692;9.400;2023-02-23T10:11:51;96386.19;;;17.43;63.47
28927;BME280;16038;47.692;9.400;2023-02-23T10:14:28;96396.06;;;17.17;62.65
28927;BME280;16038;47.692;9.400;2023-02-23T10:19:31;96389.00;;;17.90;60.83
28927;BME280;16038;47.692;9.400;2023-02-23T10:22:03;96386.13;;;17.98;58.94
28927;BME280;16038;47.692;9.400;2023-02-23T10:24:38;96386.00;;;18.25;57.42
28927;BME280;16038;47.692;9.400;2023-02-23T10:27:09;96385.41;;;17.93;57.73
28927;BME280;16038;47.692;9.400;2023-02-23T10:29:41;96383.59;;;18.47;56.94
28927;BME280;16038;47.692;9.400;2023-02-23T10:32:53;96389.16;;;19.40;52.20
28927;BME280;16038;47.692;9.400;2023-02-23T10:34:53;96376.25;;;18.97;50.83
28927;BME280;16038;47.692;9.400;2023-02-23T10:37:21;96380.38;;;17.61;56.85
28927;BME280;16038;47.692;9.400;2023-02-23T10:39:46;96384.88;;;17.99;58.00
28927;BME280;16038;47.692;9.400;2023-02-23T10:42:15;96381.75;;;17.73;57.44
28927;BME280;16038;47.692;9.400;2023-02-23T10:44:42;96376.09;;;17.06;59.99
28927;BME280;16038;47.692;9.400;2023-02-23T10:47:10;96375.41;;;16.63;60.37
28927;BME280;16038;47.692;9.400;2023-02-23T10:49:39;96370.03;;;16.53;63.12
28927;BME280;16038;47.692;9.400;2023-02-23T10:52:09;96371.22;;;16.86;60.04
28927;BME280;16038;47.692;9.400;2023-02-23T10:54:44;96369.09;;;16.63;61.43
28927;BME280;16038;47.692;9.400;2023-02-23T10:57:17;96366.53;;;17.34;60.27
28927;BME280;16038;47.692;9.400;2023-02-23T11:02:28;96365.66;;;16.55;57.57
28927;BME280;16038;47.692;9.400;2023-02-23T11:04:55;96357.88;;;16.12;62.92
28927;BME280;16038;47.692;9.400;2023-02-23T11:07:22;96358.22;;;16.79;60.05
28927;BME280;16038;47.692;9.400;2023-02-23T11:09:48;96354.50;;;17.20;59.88
28927;BME280;16038;47.692;9.400;2023-02-23T11:14:59;96350.22;;;17.67;54.57
28927;BME280;16038;47.692;9.400;2023-02-23T11:17:44;96342.44;;;16.80;57.79
28927;BME280;16038;47.692;9.400;2023-02-23T11:22:40;96341.22;;;16.81;56.76
28927;BME280;16038;47.692;9.400;2023-02-23T11:25:20;96343.28;;;17.04;56.85
28927;BME280;16038;47.692;9.400;2023-02-23T11:27:48;96332.19;;;16.77;57.36
28927;BME280;16038;47.692;9.400;2023-02-23T11:30:15;96324.28;;;17.06;56.25
28927;BME280;16038;47.692;9.400;2023-02-23T11:32:44;96327.59;;;17.21;56.28
28927;BME280;16038;47.692;9.400;2023-02-23T11:37:42;96321.31;;;16.93;56.44
28927;BME280;16038;47.692;9.400;2023-02-23T11:40:24;96320.34;;;17.07;55.02
28927;BME280;16038;47.692;9.400;2023-02-23T11:42:50;96320.66;;;16.86;54.69
28927;BME280;16038;47.692;9.400;2023-02-23T11:45:18;96307.25;;;17.78;53.04
28927;BME280;16038;47.692;9.400;2023-02-23T11:47:48;96311.41;;;17.47;53.21
28927;BME280;16038;47.692;9.400;2023-02-23T11:52:45;96308.19;;;17.25;52.90
28927;BME280;16038;47.692;9.400;2023-02-23T11:55:14;96299.06;;;17.95;50.69
28927;BME280;16038;47.692;9.400;2023-02-23T11:57:41;96300.19;;;18.58;49.68
28927;BME280;16038;47.692;9.400;2023-02-23T12:00:09;96305.22;;;18.99;46.98
28927;BME280;16038;47.692;9.400;2023-02-23T12:02:38;96295.88;;;19.09;46.99
28927;BME280;16038;47.692;9.400;2023-02-23T12:05:12;96290.94;;;18.64;48.32
28927;BME280;16038;47.692;9.400;2023-02-23T12:10:27;96289.44;;;19.45;46.03
28927;BME280;16038;47.692;9.400;2023-02-23T12:15:40;96290.81;;;19.86;44.91
28927;BME280;16038;47.692;9.400;2023-02-23T12:20:57;96280.66;;;19.63;44.79
28927;BME280;16038;47.692;9.400;2023-02-23T12:23:26;96281.41;;;20.39;43.06
28927;BME280;16038;47.692;9.400;2023-02-23T12:26:03;96274.50;;;20.01;43.70
28927;BME280;16038;47.692;9.400;2023-02-23T12:28:31;96279.53;;;20.07;43.57
28927;BME280;16038;47.692;9.400;2023-02-23T12:33:30;96270.25;;;18.49;47.10
28927;BME280;16038;47.692;9.400;2023-02-23T12:36:03;96270.28;;;18.65;46.46
28927;BME280;16038;47.692;9.400;2023-02-23T12:41:13;96261.16;;;19.51;45.59
28927;BME280;16038;47.692;9.400;2023-02-23T12:43:47;96271.66;;;19.59;43.70
28927;BME280;16038;47.692;9.400;2023-02-23T12:46:34;96261.78;;;18.56;46.06
28927;BME280;16038;47.692;9.400;2023-02-23T12:49:03;96259.59;;;17.67;48.14
28927;BME280;16038;47.692;9.400;2023-02-23T12:51:35;96257.34;;;18.02;48.50
28927;BME280;16038;47.692;9.400;2023-02-23T12:54:02;96252.50;;;18.46;46.15
28927;BME280;16038;47.692;9.400;2023-02-23T12:56:49;96253.81;;;18.22;47.57
28927;BME280;16038;47.692;9.400;2023-02-23T13:02:23;96259.09;;;17.29;48.66
28927;BME280;16038;47.692;9.400;2023-02-23T13:07:33;96242.91;;;15.49;53.52
28927;BME280;16038;47.692;9.400;2023-02-23T13:10:09;96246.19;;;16.10;53.45
28927;BME280;16038;47.692;9.400;2023-02-23T13:18:04;96244.53;;;16.47;52.23
28927;BME280;16038;47.692;9.400;2023-02-23T13:20:36;96246.41;;;15.92;53.60
28927;BME280;16038;47.692;9.400;2023-02-23T13:23:13;96246.59;;;15.36;54.74
28927;BME280;16038;47.692;9.400;2023-02-23T13:25:48;96239.84;;;14.99;56.58
28927;BME280;16038;47.692;9.400;2023-02-23T13:28:33;96239.97;;;14.84;57.53
28927;BME280;16038;47.692;9.400;2023-02-23T13:31:00;96241.56;;;14.78;58.09
28927;BME280;16038;47.692;9.400;2023-02-23T13:33:26;96237.47;;;15.01;57.70
28927;BME280;16038;47.692;9.400;2023-02-23T13:35:53;96238.19;;;15.08;58.33
28927;BME280;16038;47.692;9.400;2023-02-23T13:38:22;96242.19;;;15.00;58.14
28927;BME280;16038;47.692;9.400;2023-02-23T13:53:38;96225.59;;;14.51;60.47
28927;BME280;16038;47.692;9.400;2023-02-23T13:56:06;96225.19;;;14.49;59.49
28927;BME280;16038;47.692;9.400;2023-02-23T13:58:32;96216.22;;;14.38;61.25
28927;BME280;16038;47.692;9.400;2023-02-23T14:01:07;96222.91;;;14.44;61.41
28927;BME280;16038;47.692;9.400;2023-02-23T14:03:35;96221.63;;;14.60;61.25
28927;BME280;16038;47.692;9.400;2023-02-23T14:06:03;96219.13;;;14.76;60.92
28927;BME280;16038;47.692;9.400;2023-02-23T14:08:32;96219.50;;;14.78;59.38
28927;BME280;16038;47.692;9.400;2023-02-23T14:10:58;96215.16;;;14.84;60.31
28927;BME280;16038;47.692;9.400;2023-02-23T14:13:31;96217.09;;;14.28;61.38
28927;BME280;16038;47.692;9.400;2023-02-23T14:16:11;96215.81;;;14.43;60.72
28927;BME280;16038;47.692;9.400;2023-02-23T14:21:32;96213.97;;;14.22;62.19
28927;BME280;16038;47.692;9.400;2023-02-23T14:24:03;96216.66;;;14.29;62.55
28927;BME280;16038;47.692;9.400;2023-02-23T14:31:38;96202.22;;;14.11;63.93
28927;BME280;16038;47.692;9.400;2023-02-23T14:34:18;96201.13;;;13.98;63.11
28927;BME280;16038;47.692;9.400;2023-02-23T14:36:44;96204.31;;;13.89;64.18
28927;BME280;16038;47.692;9.400;2023-02-23T14:46:30;96207.72;;;14.11;63.41
28927;BME280;16038;47.692;9.400;2023-02-23T14:52:07;96195.09;;;14.21;62.92
28927;BME280;16038;47.692;9.400;2023-02-23T14:56:48;96203.81;;;14.08;63.22
28927;BME280;16038;47.692;9.400;2023-02-23T14:59:16;96199.78;;;14.24;63.00
28927;BME280;16038;47.692;9.400;2023-02-23T15:01:42;96198.16;;;14.37;62.86
28927;BME280;16038;47.692;9.400;2023-02-23T15:04:09;96196.22;;;14.30;62.44
28927;BME280;16038;47.692;9.400;2023-02-23T15:06:35;96191.59;;;14.09;63.44
28927;BME280;16038;47.692;9.400;2023-02-23T15:09:01;96197.44;;;14.19;63.16
28927;BME280;16038;47.692;9.400;2023-02-23T15:11:26;96196.75;;;14.07;63.27
28927;BME280;16038;47.692;9.400;2023-02-23T15:13:52;96197.56;;;14.01;62.80
28927;BME280;16038;47.692;9.400;2023-02-23T15:16:29;96196.03;;;13.96;64.11
28927;BME280;16038;47.692;9.400;2023-02-23T15:21:56;96194.56;;;13.66;65.99